sensor_id;sensor_type;location;lat;lon;timestamp;pressure;altitude;pressure_sealevel;temperature;humidity
11605;BME280;5858;43.076;25.626;2023-02-13T00:01:55;101275.28;;;-0.38;95.74
11605;BME280;5858;43.076;25.626;2023-02-13T00:04:22;101307.69;;;-0.17;95.57
11605;BME280;5858;43.076;25.626;2023-02-13T00:06:49;101191.31;;;-0.83;95.42
11605;BME280;5858;43.076;25.626;2023-02-13T00:09:16;101241.19;;;-0.61;95.62
11605;BME280;5858;43.076;25.626;2023-02-13T00:11:44;101150.63;;;-1.15;95.53
11605;BME280;5858;43.076;25.626;2023-02-13T00:14:11;101308.75;;;-0.21;94.80
11605;BME280;5858;43.076;25.626;2023-02-13T00:16:38;101294.59;;;-0.39;95.08
11605;BME280;5858;43.076;25.626;2023-02-13T00:19:08;101218.72;;;-0.89;95.26
11605;BME280;5858;43.076;25.626;2023-02-13T00:21:38;101274.38;;;-0.59;95.55
11605;BME280;5858;43.076;25.626;2023-02-13T00:24:05;101338.25;;;-0.35;96.19
11605;BME280;5858;43.076;25.626;2023-02-13T00:26:32;101268.06;;;-0.75;95.86
11605;BME280;5858;43.076;25.626;2023-02-13T00:29:00;101279.50;;;-0.76;96.40
11605;BME280;5858;43.076;25.626;2023-02-13T00:31:27;101325.78;;;-0.52;96.76
11605;BME280;5858;43.076;25.626;2023-02-13T00:33:54;101327.63;;;-0.54;97.64
11605;BME280;5858;43.076;25.626;2023-02-13T00:36:22;101300.72;;;-0.81;97.69
11605;BME280;5858;43.076;25.626;2023-02-13T00:38:49;101293.66;;;-1.02;97.61
11605;BME280;5858;43.076;25.626;2023-02-13T00:41:19;101348.78;;;-0.57;96.99
11605;BME280;5858;43.076;25.626;2023-02-13T00:43:47;101285.38;;;-0.91;96.67
11605;BME280;5858;43.076;25.626;2023-02-13T00:46:16;101302.53;;;-0.83;96.57
11605;BME280;5858;43.076;25.626;2023-02-13T00:48:43;101330.69;;;-0.65;96.82
11605;BME280;5858;43.076;25.626;2023-02-13T00:51:11;101244.88;;;-1.30;96.50
11605;BME280;5858;43.076;25.626;2023-02-13T00:53:38;101308.34;;;-0.97;96.24
11605;BME280;5858;43.076;25.626;2023-02-13T00:56:06;101330.84;;;-0.89;96.72
11605;BME280;5858;43.076;25.626;2023-02-13T00:58:33;101250.38;;;-1.36;96.64
11605;BME280;5858;43.076;25.626;2023-02-13T01:01:00;101327.19;;;-0.85;96.77
11605;BME280;5858;43.076;25.626;2023-02-13T01:03:29;101319.28;;;-0.85;96.00
11605;BME280;5858;43.076;25.626;2023-02-13T01:05:56;101337.31;;;-0.76;96.63
11605;BME280;5858;43.076;25.626;2023-02-13T01:08:24;101224.50;;;-1.46;96.56
11605;BME280;5858;43.076;25.626;2023-02-13T01:10:53;101281.69;;;-1.09;96.94
11605;BME280;5858;43.076;25.626;2023-02-13T01:13:20;101258.19;;;-1.34;96.92
11605;BME280;5858;43.076;25.626;2023-02-13T01:15:48;101337.22;;;-0.97;96.49
11605;BME280;5858;43.076;25.626;2023-02-13T01:18:16;101329.69;;;-0.82;96.65
11605;BME280;5858;43.076;25.626;2023-02-13T01:20:55;101133.28;;;-2.07;96.10
11605;BME280;5858;43.076;25.626;2023-02-13T01:23:23;101227.19;;;-1.48;96.23
11605;BME280;5858;43.076;25.626;2023-02-13T01:25:50;101279.81;;;-1.28;96.21
11605;BME280;5858;43.076;25.626;2023-02-13T01:28:17;101288.66;;;-1.08;96.26
11605;BME280;5858;43.076;25.626;2023-02-13T01:30:44;101197.88;;;-1.81;96.60
11605;BME280;5858;43.076;25.626;2023-02-13T01:33:11;101330.28;;;-0.98;96.15
11605;BME280;5858;43.076;25.626;2023-02-13T01:35:40;101142.41;;;-2.17;95.68
11605;BME280;5858;43.076;25.626;2023-02-13T01:38:09;101359.22;;;-0.99;96.51
11605;BME280;5858;43.076;25.626;2023-02-13T01:40:44;101344.16;;;-0.94;96.66
11605;BME280;5858;43.076;25.626;2023-02-13T01:43:11;101337.53;;;-1.04;96.54
11605;BME280;5858;43.076;25.626;2023-02-13T01:45:38;101346.03;;;-0.98;96.81
11605;BME280;5858;43.076;25.626;2023-02-13T01:48:11;101244.34;;;-1.61;96.58
11605;BME280;5858;43.076;25.626;2023-02-13T01:50:43;101308.94;;;-1.34;97.75
11605;BME280;5858;43.076;25.626;2023-02-13T01:53:17;101349.31;;;-1.14;97.86
11605;BME280;5858;43.076;25.626;2023-02-13T01:55:47;101166.97;;;-2.19;97.38
11605;BME280;5858;43.076;25.626;2023-02-13T01:58:21;101347.09;;;-1.25;97.58
11605;BME280;5858;43.076;25.626;2023-02-13T02:00:52;101255.88;;;-1.65;97.86
11605;BME280;5858;43.076;25.626;2023-02-13T02:03:26;101343.28;;;-1.16;97.55
11605;BME280;5858;43.076;25.626;2023-02-13T02:05:57;101277.47;;;-1.59;96.86
11605;BME280;5858;43.076;25.626;2023-02-13T02:08:27;101328.91;;;-1.30;96.72
11605;BME280;5858;43.076;25.626;2023-02-13T02:10:57;101347.03;;;-1.47;96.73
11605;BME280;5858;43.076;25.626;2023-02-13T02:13:27;101337.94;;;-1.37;97.13
11605;BME280;5858;43.076;25.626;2023-02-13T02:15:54;101355.03;;;-1.50;97.82
11605;BME280;5858;43.076;25.626;2023-02-13T02:18:23;101247.47;;;-1.98;97.31
11605;BME280;5858;43.076;25.626;2023-02-13T02:21:26;101349.22;;;-1.35;97.44
11605;BME280;5858;43.076;25.626;2023-02-13T02:27:33;101306.31;;;-1.57;97.29
11605;BME280;5858;43.076;25.626;2023-02-13T02:30:31;101337.88;;;-1.35;97.18
11605;BME280;5858;43.076;25.626;2023-02-13T02:33:17;101344.84;;;-1.34;97.31
11605;BME280;5858;43.076;25.626;2023-02-13T02:35:54;101341.25;;;-1.32;97.35
11605;BME280;5858;43.076;25.626;2023-02-13T02:38:34;101343.91;;;-1.33;97.76
11605;BME280;5858;43.076;25.626;2023-02-13T02:41:10;101329.53;;;-1.46;97.49
11605;BME280;5858;43.076;25.626;2023-02-13T02:44:07;101337.94;;;-1.37;98.29
11605;BME280;5858;43.076;25.626;2023-02-13T02:46:39;101316.81;;;-1.57;98.20
11605;BME280;5858;43.076;25.626;2023-02-13T02:49:36;101237.16;;;-2.03;97.93
11605;BME280;5858;43.076;25.626;2023-02-13T02:52:28;101340.63;;;-1.38;98.37
11605;BME280;5858;43.076;25.626;2023-02-13T02:55:02;101341.53;;;-1.39;98.29
11605;BME280;5858;43.076;25.626;2023-02-13T02:57:39;101346.66;;;-1.36;98.50
11605;BME280;5858;43.076;25.626;2023-02-13T03:00:28;101349.22;;;-1.35;98.56
11605;BME280;5858;43.076;25.626;2023-02-13T03:03:16;101319.19;;;-1.51;97.80
11605;BME280;5858;43.076;25.626;2023-02-13T03:06:08;101291.47;;;-1.81;98.49
11605;BME280;5858;43.076;25.626;2023-02-13T03:08:40;101353.41;;;-1.29;98.42
11605;BME280;5858;43.076;25.626;2023-02-13T03:11:26;101348.53;;;-1.16;97.95
11605;BME280;5858;43.076;25.626;2023-02-13T03:14:13;101211.50;;;-1.95;97.15
11605;BME280;5858;43.076;25.626;2023-02-13T03:16:42;101319.19;;;-1.28;96.88
11605;BME280;5858;43.076;25.626;2023-02-13T03:19:37;101337.78;;;-1.10;96.71
11605;BME280;5858;43.076;25.626;2023-02-13T03:22:33;101323.03;;;-1.36;96.91
11605;BME280;5858;43.076;25.626;2023-02-13T03:25:10;101308.13;;;-1.36;97.29
11605;BME280;5858;43.076;25.626;2023-02-13T03:27:45;101273.22;;;-1.61;97.05
11605;BME280;5858;43.076;25.626;2023-02-13T03:30:40;101302.28;;;-1.44;96.78
11605;BME280;5858;43.076;25.626;2023-02-13T03:33:24;101158.66;;;-2.31;96.74
11605;BME280;5858;43.076;25.626;2023-02-13T03:36:02;101324.88;;;-1.38;97.16
11605;BME280;5858;43.076;25.626;2023-02-13T03:38:54;101173.94;;;-2.43;97.02
11605;BME280;5858;43.076;25.626;2023-02-13T03:41:25;101283.09;;;-1.68;96.80
11605;BME280;5858;43.076;25.626;2023-02-13T03:44:03;101313.75;;;-1.46;96.73
11605;BME280;5858;43.076;25.626;2023-02-13T03:46:36;101298.31;;;-1.54;96.41
11605;BME280;5858;43.076;25.626;2023-02-13T03:49:06;101200.72;;;-2.10;95.93
11605;BME280;5858;43.076;25.626;2023-02-13T03:51:58;101231.09;;;-2.28;96.01
11605;BME280;5858;43.076;25.626;2023-02-13T03:54:33;101295.19;;;-1.87;96.37
11605;BME280;5858;43.076;25.626;2023-02-13T03:57:22;101205.19;;;-2.37;96.24
11605;BME280;5858;43.076;25.626;2023-02-13T04:00:13;101248.44;;;-2.24;96.08
11605;BME280;5858;43.076;25.626;2023-02-13T04:02:48;101158.25;;;-2.68;96.68
11605;BME280;5858;43.076;25.626;2023-02-13T04:05:20;101278.88;;;-2.20;96.04
11605;BME280;5858;43.076;25.626;2023-02-13T04:07:47;101322.91;;;-1.80;96.41
11605;BME280;5858;43.076;25.626;2023-02-13T04:10:17;101280.09;;;-2.05;96.97
11605;BME280;5858;43.076;25.626;2023-02-13T04:12:52;101259.59;;;-2.19;96.87
11605;BME280;5858;43.076;25.626;2023-02-13T04:15:27;101287.56;;;-1.95;96.30
11605;BME280;5858;43.076;25.626;2023-02-13T04:18:02;101306.47;;;-1.85;96.49
11605;BME280;5858;43.076;25.626;2023-02-13T04:20:31;101301.41;;;-1.91;96.43
11605;BME280;5858;43.076;25.626;2023-02-13T04:23:03;101322.09;;;-1.82;96.71
11605;BME280;5858;43.076;25.626;2023-02-13T04:25:33;101212.47;;;-2.45;96.69
11605;BME280;5858;43.076;25.626;2023-02-13T04:28:02;101299.13;;;-2.00;97.27
11605;BME280;5858;43.076;25.626;2023-02-13T04:30:29;101298.06;;;-1.95;96.75
11605;BME280;5858;43.076;25.626;2023-02-13T04:32:56;101322.03;;;-1.80;96.61
11605;BME280;5858;43.076;25.626;2023-02-13T04:35:24;101302.44;;;-1.95;96.38
11605;BME280;5858;43.076;25.626;2023-02-13T04:37:51;101335.28;;;-1.83;96.30
11605;BME280;5858;43.076;25.626;2023-02-13T04:40:19;101305.34;;;-2.03;96.54
11605;BME280;5858;43.076;25.626;2023-02-13T04:42:47;101278.88;;;-2.20;96.79
11605;BME280;5858;43.076;25.626;2023-02-13T04:45:15;101343.09;;;-1.82;96.44
11605;BME280;5858;43.076;25.626;2023-02-13T04:47:42;101220.75;;;-2.58;96.81
11605;BME280;5858;43.076;25.626;2023-02-13T04:50:09;101337.09;;;-1.85;96.85
11605;BME280;5858;43.076;25.626;2023-02-13T04:52:36;101287.31;;;-2.12;96.81
11605;BME280;5858;43.076;25.626;2023-02-13T04:55:03;101336.00;;;-2.05;96.75
11605;BME280;5858;43.076;25.626;2023-02-13T04:57:30;101301.28;;;-2.11;96.54
11605;BME280;5858;43.076;25.626;2023-02-13T04:59:59;101191.59;;;-2.98;96.93
11605;BME280;5858;43.076;25.626;2023-02-13T05:02:26;101339.16;;;-1.95;97.28
11605;BME280;5858;43.076;25.626;2023-02-13T05:04:53;101159.69;;;-3.09;97.21
11605;BME280;5858;43.076;25.626;2023-02-13T05:07:20;101287.97;;;-2.30;97.37
11605;BME280;5858;43.076;25.626;2023-02-13T05:09:47;101292.41;;;-2.32;97.05
11605;BME280;5858;43.076;25.626;2023-02-13T05:12:14;101317.97;;;-2.14;96.76
11605;BME280;5858;43.076;25.626;2023-02-13T05:14:41;101263.44;;;-2.54;97.37
11605;BME280;5858;43.076;25.626;2023-02-13T05:17:10;101254.34;;;-2.69;97.18
11605;BME280;5858;43.076;25.626;2023-02-13T05:19:36;101347.41;;;-2.06;96.91
11605;BME280;5858;43.076;25.626;2023-02-13T05:22:04;101338.53;;;-2.02;97.25
11605;BME280;5858;43.076;25.626;2023-02-13T05:24:48;101341.31;;;-2.06;96.95
11605;BME280;5858;43.076;25.626;2023-02-13T05:27:15;101248.69;;;-2.57;96.56
11605;BME280;5858;43.076;25.626;2023-02-13T05:29:42;101338.63;;;-2.05;96.59
11605;BME280;5858;43.076;25.626;2023-02-13T05:32:10;101276.06;;;-2.40;96.48
11605;BME280;5858;43.076;25.626;2023-02-13T05:34:37;101259.44;;;-2.64;95.82
11605;BME280;5858;43.076;25.626;2023-02-13T05:37:07;101312.09;;;-2.20;96.07
11605;BME280;5858;43.076;25.626;2023-02-13T05:39:34;101286.75;;;-2.46;96.12
11605;BME280;5858;43.076;25.626;2023-02-13T05:42:01;101284.94;;;-2.44;95.95
11605;BME280;5858;43.076;25.626;2023-02-13T05:44:29;101330.19;;;-2.13;95.75
11605;BME280;5858;43.076;25.626;2023-02-13T05:46:56;101370.47;;;-1.91;96.10
11605;BME280;5858;43.076;25.626;2023-02-13T05:49:25;101345.59;;;-2.29;96.22
11605;BME280;5858;43.076;25.626;2023-02-13T05:51:51;101380.69;;;-1.81;96.09
11605;BME280;5858;43.076;25.626;2023-02-13T05:54:19;101387.25;;;-1.70;95.98
11605;BME280;5858;43.076;25.626;2023-02-13T05:56:46;101221.84;;;-2.63;95.13
11605;BME280;5858;43.076;25.626;2023-02-13T05:59:16;101284.84;;;-2.16;94.41
11605;BME280;5858;43.076;25.626;2023-02-13T06:01:43;101347.72;;;-1.90;95.17
11605;BME280;5858;43.076;25.626;2023-02-13T06:04:15;101370.25;;;-1.83;95.88
11605;BME280;5858;43.076;25.626;2023-02-13T06:06:45;101309.31;;;-2.16;96.46
11605;BME280;5858;43.076;25.626;2023-02-13T06:09:12;101227.19;;;-2.66;95.74
11605;BME280;5858;43.076;25.626;2023-02-13T06:11:39;101253.72;;;-2.50;96.08
11605;BME280;5858;43.076;25.626;2023-02-13T06:14:14;101368.72;;;-1.65;95.43
11605;BME280;5858;43.076;25.626;2023-02-13T06:16:41;101299.75;;;-1.94;95.25
11605;BME280;5858;43.076;25.626;2023-02-13T06:19:08;101380.91;;;-1.39;95.12
11605;BME280;5858;43.076;25.626;2023-02-13T06:21:35;101260.47;;;-2.18;95.20
11605;BME280;5858;43.076;25.626;2023-02-13T06:24:05;101384.28;;;-1.36;94.99
11605;BME280;5858;43.076;25.626;2023-02-13T06:26:33;101382.38;;;-1.09;94.73
11605;BME280;5858;43.076;25.626;2023-02-13T06:29:00;101346.31;;;-1.27;94.14
11605;BME280;5858;43.076;25.626;2023-02-13T06:31:27;101369.34;;;-1.12;93.92
11605;BME280;5858;43.076;25.626;2023-02-13T06:33:54;101390.38;;;-0.88;93.76
11605;BME280;5858;43.076;25.626;2023-02-13T06:36:22;101361.75;;;-0.96;93.91
11605;BME280;5858;43.076;25.626;2023-02-13T06:38:51;101373.38;;;-0.80;93.78
11605;BME280;5858;43.076;25.626;2023-02-13T06:41:19;101361.16;;;-0.81;92.95
11605;BME280;5858;43.076;25.626;2023-02-13T06:43:46;101336.22;;;-0.92;92.08
11605;BME280;5858;43.076;25.626;2023-02-13T06:46:13;101355.53;;;-0.72;92.01
11605;BME280;5858;43.076;25.626;2023-02-13T06:48:40;101223.34;;;-1.61;92.50
11605;BME280;5858;43.076;25.626;2023-02-13T06:51:09;101270.78;;;-1.20;92.08
11605;BME280;5858;43.076;25.626;2023-02-13T06:53:36;101295.88;;;-1.13;91.83
11605;BME280;5858;43.076;25.626;2023-02-13T06:56:04;101287.22;;;-0.93;92.13
11605;BME280;5858;43.076;25.626;2023-02-13T06:58:33;101351.53;;;-0.38;91.89
11605;BME280;5858;43.076;25.626;2023-02-13T07:01:00;101396.94;;;-0.13;90.49
11605;BME280;5858;43.076;25.626;2023-02-13T07:03:27;101331.78;;;-0.48;90.08
11605;BME280;5858;43.076;25.626;2023-02-13T07:05:54;101336.88;;;-0.23;90.09
11605;BME280;5858;43.076;25.626;2023-02-13T07:08:22;101393.09;;;0.16;89.79
11605;BME280;5858;43.076;25.626;2023-02-13T09:12:17;101272.44;;;3.76;75.21
11605;BME280;5858;43.076;25.626;2023-02-13T09:25:54;101173.63;;;3.76;75.28
11605;BME280;5858;43.076;25.626;2023-02-13T09:35:42;101309.88;;;5.13;72.85
11605;BME280;5858;43.076;25.626;2023-02-13T09:41:49;101304.91;;;5.35;73.78
11605;BME280;5858;43.076;25.626;2023-02-13T09:51:49;101130.59;;;4.69;72.65
11605;BME280;5858;43.076;25.626;2023-02-13T09:58:17;101119.94;;;4.83;73.63
11605;BME280;5858;43.076;25.626;2023-02-13T10:00:55;101253.84;;;5.57;72.05
11605;BME280;5858;43.076;25.626;2023-02-13T10:03:40;101126.13;;;4.96;73.07
11605;BME280;5858;43.076;25.626;2023-02-13T10:06:38;101105.97;;;4.94;70.69
11605;BME280;5858;43.076;25.626;2023-02-13T10:09:46;101164.22;;;5.48;71.29
11605;BME280;5858;43.076;25.626;2023-02-13T10:12:39;101142.75;;;5.38;69.71
11605;BME280;5858;43.076;25.626;2023-02-13T10:29:33;101116.84;;;5.67;69.36
11605;BME280;5858;43.076;25.626;2023-02-13T10:32:30;101078.38;;;5.60;69.17
11605;BME280;5858;43.076;25.626;2023-02-13T10:35:22;101244.19;;;6.57;68.56
11605;BME280;5858;43.076;25.626;2023-02-13T10:38:16;101097.50;;;5.78;69.25
11605;BME280;5858;43.076;25.626;2023-02-13T10:41:00;101231.22;;;6.66;69.11
11605;BME280;5858;43.076;25.626;2023-02-13T10:44:02;101077.09;;;5.78;68.71
11605;BME280;5858;43.076;25.626;2023-02-13T10:46:39;101148.44;;;6.34;69.53
11605;BME280;5858;43.076;25.626;2023-02-13T10:49:42;101038.78;;;5.69;69.12
11605;BME280;5858;43.076;25.626;2023-02-13T10:52:23;101146.63;;;6.58;69.08
11605;BME280;5858;43.076;25.626;2023-02-13T10:58:25;101070.66;;;6.19;69.90
11605;BME280;5858;43.076;25.626;2023-02-13T11:01:17;101097.75;;;6.48;67.49
11605;BME280;5858;43.076;25.626;2023-02-13T11:03:46;101071.81;;;6.15;68.08
11605;BME280;5858;43.076;25.626;2023-02-13T11:07:23;101046.25;;;5.88;68.68
11605;BME280;5858;43.076;25.626;2023-02-13T11:10:34;101130.25;;;6.64;68.79
11605;BME280;5858;43.076;25.626;2023-02-13T11:41:12;101074.50;;;6.62;67.99
11605;BME280;5858;43.076;25.626;2023-02-13T11:47:29;101014.59;;;6.46;67.35
11605;BME280;5858;43.076;25.626;2023-02-13T11:49:58;101154.38;;;7.44;67.98
11605;BME280;5858;43.076;25.626;2023-02-13T11:52:31;101119.09;;;7.18;68.03
11605;BME280;5858;43.076;25.626;2023-02-13T11:55:26;100988.72;;;6.48;68.61
11605;BME280;5858;43.076;25.626;2023-02-13T12:05:29;101094.53;;;7.37;67.77
11605;BME280;5858;43.076;25.626;2023-02-13T12:08:42;101143.50;;;7.58;68.07
11605;BME280;5858;43.076;25.626;2023-02-13T12:14:42;101061.00;;;7.12;68.17
11605;BME280;5858;43.076;25.626;2023-02-13T12:20:42;101011.94;;;6.92;67.99
11605;BME280;5858;43.076;25.626;2023-02-13T12:23:48;100966.06;;;6.66;68.37
11605;BME280;5858;43.076;25.626;2023-02-13T13:47:42;100970.94;;;7.06;66.90
11605;BME280;5858;43.076;25.626;2023-02-13T13:51:16;100899.81;;;6.63;66.82
11605;BME280;5858;43.076;25.626;2023-02-13T13:54:24;100900.06;;;6.71;67.93
11605;BME280;5858;43.076;25.626;2023-02-13T15:56:44;100917.19;;;5.00;75.62
11605;BME280;5858;43.076;25.626;2023-02-13T15:59:40;100848.09;;;4.52;76.13
11605;BME280;5858;43.076;25.626;2023-02-13T17:09:01;100956.25;;;4.07;84.05
11605;BME280;5858;43.076;25.626;2023-02-13T17:18:46;100829.47;;;2.95;85.16
11605;BME280;5858;43.076;25.626;2023-02-13T17:35:27;100995.53;;;3.60;86.96
11605;BME280;5858;43.076;25.626;2023-02-13T17:48:37;100817.25;;;2.37;87.50
11605;BME280;5858;43.076;25.626;2023-02-13T17:51:29;100881.31;;;2.69;86.86
11605;BME280;5858;43.076;25.626;2023-02-13T17:54:10;100880.75;;;2.64;87.07
11605;BME280;5858;43.076;25.626;2023-02-13T17:57:13;100835.56;;;2.40;87.10
11605;BME280;5858;43.076;25.626;2023-02-13T17:59:53;100892.44;;;2.74;87.65
11605;BME280;5858;43.076;25.626;2023-02-13T18:06:22;100993.56;;;3.21;88.12
11605;BME280;5858;43.076;25.626;2023-02-13T18:09:17;100835.75;;;2.37;88.65
11605;BME280;5858;43.076;25.626;2023-02-13T18:12:05;100799.31;;;2.14;88.85
11605;BME280;5858;43.076;25.626;2023-02-13T18:15:04;100829.84;;;2.18;89.18
11605;BME280;5858;43.076;25.626;2023-02-13T18:17:56;100816.66;;;2.18;89.51
11605;BME280;5858;43.076;25.626;2023-02-13T18:20:42;100876.88;;;2.41;89.02
11605;BME280;5858;43.076;25.626;2023-02-13T18:27:17;100810.59;;;2.02;88.69
11605;BME280;5858;43.076;25.626;2023-02-13T18:30:06;100826.91;;;1.94;88.64
11605;BME280;5858;43.076;25.626;2023-02-13T18:32:42;100816.03;;;1.84;88.91
11605;BME280;5858;43.076;25.626;2023-02-13T18:35:09;100806.38;;;1.69;88.89
11605;BME280;5858;43.076;25.626;2023-02-13T18:37:44;100909.28;;;2.29;88.81
11605;BME280;5858;43.076;25.626;2023-02-13T18:40:26;100870.78;;;2.11;88.67
11605;BME280;5858;43.076;25.626;2023-02-13T18:45:57;100943.22;;;2.21;89.74
11605;BME280;5858;43.076;25.626;2023-02-13T18:49:08;100953.50;;;2.26;90.30
11605;BME280;5858;43.076;25.626;2023-02-13T18:51:56;100940.41;;;2.24;90.39
11605;BME280;5858;43.076;25.626;2023-02-13T19:07:50;100820.56;;;1.37;90.32
11605;BME280;5858;43.076;25.626;2023-02-13T19:11:12;100846.94;;;1.52;90.88
11605;BME280;5858;43.076;25.626;2023-02-13T19:14:02;100965.00;;;2.25;91.13
11605;BME280;5858;43.076;25.626;2023-02-13T19:18:03;100804.94;;;1.18;90.72
11605;BME280;5858;43.076;25.626;2023-02-13T19:20:10;100815.06;;;1.25;91.10
11605;BME280;5858;43.076;25.626;2023-02-13T19:22:53;100817.69;;;1.25;91.05
11605;BME280;5858;43.076;25.626;2023-02-13T19:25:48;100968.78;;;2.20;90.84
11605;BME280;5858;43.076;25.626;2023-02-13T19:28:35;100892.50;;;1.70;90.80
11605;BME280;5858;43.076;25.626;2023-02-13T19:31:33;100859.53;;;1.47;91.39
11605;BME280;5858;43.076;25.626;2023-02-13T19:34:12;100845.00;;;1.24;91.31
11605;BME280;5858;43.076;25.626;2023-02-13T19:37:54;100802.00;;;1.08;91.41
11605;BME280;5858;43.076;25.626;2023-02-13T19:40:32;100913.53;;;1.72;91.62
11605;BME280;5858;43.076;25.626;2023-02-13T19:43:06;100914.63;;;1.68;91.67
11605;BME280;5858;43.076;25.626;2023-02-13T19:45:35;100917.38;;;1.66;91.88
11605;BME280;5858;43.076;25.626;2023-02-13T19:48:16;100800.72;;;0.84;91.72
11605;BME280;5858;43.076;25.626;2023-02-13T19:51:04;100861.41;;;1.30;91.83
11605;BME280;5858;43.076;25.626;2023-02-13T19:53:40;100812.22;;;0.99;92.07
11605;BME280;5858;43.076;25.626;2023-02-13T19:56:38;100917.38;;;1.66;92.11
11605;BME280;5858;43.076;25.626;2023-02-13T20:00:08;100922.06;;;1.61;91.65
11605;BME280;5858;43.076;25.626;2023-02-13T20:02:29;100781.34;;;0.69;91.35
11605;BME280;5858;43.076;25.626;2023-02-13T20:05:18;100952.94;;;1.75;91.86
11605;BME280;5858;43.076;25.626;2023-02-13T20:08:01;100950.38;;;1.73;92.25
11605;BME280;5858;43.076;25.626;2023-02-13T20:12:15;100913.22;;;1.46;92.45
11605;BME280;5858;43.076;25.626;2023-02-13T20:14:06;100871.88;;;1.31;91.71
11605;BME280;5858;43.076;25.626;2023-02-13T20:16:46;100944.94;;;1.61;92.15
11605;BME280;5858;43.076;25.626;2023-02-13T20:19:50;100790.78;;;0.73;92.37
11605;BME280;5858;43.076;25.626;2023-02-13T20:23:00;100789.66;;;0.61;91.96
11605;BME280;5858;43.076;25.626;2023-02-13T20:26:05;100778.63;;;0.55;92.62
11605;BME280;5858;43.076;25.626;2023-02-13T20:28:51;100800.03;;;0.80;92.48
11605;BME280;5858;43.076;25.626;2023-02-13T20:31:37;100929.06;;;1.46;93.09
11605;BME280;5858;43.076;25.626;2023-02-13T20:34:45;100917.31;;;1.52;92.97
11605;BME280;5858;43.076;25.626;2023-02-13T20:37:43;100910.06;;;1.55;92.54
11605;BME280;5858;43.076;25.626;2023-02-13T20:40:25;100909.41;;;1.52;92.57
11605;BME280;5858;43.076;25.626;2023-02-13T20:43:06;100786.94;;;0.79;92.02
11605;BME280;5858;43.076;25.626;2023-02-13T20:46:02;100773.00;;;0.61;92.18
11605;BME280;5858;43.076;25.626;2023-02-13T20:48:43;100862.78;;;1.21;92.47
11605;BME280;5858;43.076;25.626;2023-02-13T20:51:16;100745.03;;;0.43;92.36
11605;BME280;5858;43.076;25.626;2023-02-13T21:04:22;100710.97;;;0.24;92.91
11605;BME280;5858;43.076;25.626;2023-02-13T21:07:21;100690.38;;;-0.01;92.62
11605;BME280;5858;43.076;25.626;2023-02-13T21:09:56;100700.59;;;0.05;92.88
11605;BME280;5858;43.076;25.626;2023-02-13T21:13:00;100838.72;;;0.96;93.08
11605;BME280;5858;43.076;25.626;2023-02-13T21:15:42;100855.69;;;0.90;92.97
11605;BME280;5858;43.076;25.626;2023-02-13T21:18:22;100879.78;;;1.00;93.38
11605;BME280;5858;43.076;25.626;2023-02-13T21:20:53;100877.41;;;0.95;93.64
11605;BME280;5858;43.076;25.626;2023-02-13T21:23:21;100696.53;;;-0.18;93.57
11605;BME280;5858;43.076;25.626;2023-02-13T21:25:48;100774.56;;;0.32;93.89
11605;BME280;5858;43.076;25.626;2023-02-13T21:28:20;100857.81;;;0.68;93.71
11605;BME280;5858;43.076;25.626;2023-02-13T21:30:47;100830.44;;;0.54;93.98
11605;BME280;5858;43.076;25.626;2023-02-13T21:33:26;100778.22;;;0.29;93.99
11605;BME280;5858;43.076;25.626;2023-02-13T21:36:05;100749.94;;;0.17;93.64
11605;BME280;5858;43.076;25.626;2023-02-13T21:38:34;100759.78;;;0.14;94.11
11605;BME280;5858;43.076;25.626;2023-02-13T21:41:05;100730.38;;;0.06;93.92
11605;BME280;5858;43.076;25.626;2023-02-13T21:43:35;100779.50;;;0.38;94.04
11605;BME280;5858;43.076;25.626;2023-02-13T21:46:07;100759.88;;;0.28;94.69
11605;BME280;5858;43.076;25.626;2023-02-13T21:48:37;100755.19;;;0.17;93.98
11605;BME280;5858;43.076;25.626;2023-02-13T21:51:07;100707.25;;;-0.05;94.46
11605;BME280;5858;43.076;25.626;2023-02-13T21:53:35;100677.84;;;-0.29;94.73
11605;BME280;5858;43.076;25.626;2023-02-13T21:56:06;100829.69;;;0.68;94.83
11605;BME280;5858;43.076;25.626;2023-02-13T21:58:34;100751.13;;;0.27;95.37
11605;BME280;5858;43.076;25.626;2023-02-13T22:01:08;100768.22;;;0.36;94.72
11605;BME280;5858;43.076;25.626;2023-02-13T22:03:35;100737.63;;;0.18;95.15
11605;BME280;5858;43.076;25.626;2023-02-13T22:06:05;100809.31;;;0.39;95.12
11605;BME280;5858;43.076;25.626;2023-02-13T22:08:33;100731.69;;;-0.03;95.22
11605;BME280;5858;43.076;25.626;2023-02-13T22:11:00;100772.41;;;0.07;94.92
11605;BME280;5858;43.076;25.626;2023-02-13T22:13:27;100753.13;;;0.07;95.07
11605;BME280;5858;43.076;25.626;2023-02-13T22:15:58;100668.31;;;-0.47;94.68
11605;BME280;5858;43.076;25.626;2023-02-13T22:18:30;100683.06;;;-0.45;94.77
11605;BME280;5858;43.076;25.626;2023-02-13T22:21:02;100715.28;;;-0.24;94.46
11605;BME280;5858;43.076;25.626;2023-02-13T22:23:32;100724.22;;;-0.11;94.53
11605;BME280;5858;43.076;25.626;2023-02-13T22:26:03;100832.38;;;0.51;94.43
11605;BME280;5858;43.076;25.626;2023-02-13T22:28:32;100732.19;;;-0.12;94.79
11605;BME280;5858;43.076;25.626;2023-02-13T22:31:06;100779.47;;;0.07;95.01
11605;BME280;5858;43.076;25.626;2023-02-13T22:33:33;100769.25;;;0.01;94.90
11605;BME280;5858;43.076;25.626;2023-02-13T22:36:01;100830.97;;;0.44;95.43
11605;BME280;5858;43.076;25.626;2023-02-13T22:38:32;100771.66;;;0.05;95.27
11605;BME280;5858;43.076;25.626;2023-02-13T22:41:04;100787.38;;;0.22;95.32
11605;BME280;5858;43.076;25.626;2023-02-13T22:43:32;100766.16;;;-0.08;95.44
11605;BME280;5858;43.076;25.626;2023-02-13T22:46:04;100746.63;;;-0.04;95.23
11605;BME280;5858;43.076;25.626;2023-02-13T22:48:42;100720.38;;;-0.21;94.74
11605;BME280;5858;43.076;25.626;2023-02-13T22:51:15;100833.94;;;0.38;95.04
11605;BME280;5858;43.076;25.626;2023-02-13T22:53:44;100661.69;;;-0.72;94.86
11605;BME280;5858;43.076;25.626;2023-02-13T22:56:14;100788.97;;;-0.08;95.31
11605;BME280;5858;43.076;25.626;2023-02-13T22:58:42;100739.34;;;-0.32;95.21
11605;BME280;5858;43.076;25.626;2023-02-13T23:01:10;100825.94;;;0.23;96.00
11605;BME280;5858;43.076;25.626;2023-02-13T23:03:38;100725.91;;;-0.43;95.58